Terminal Aerodrome Forecast
Issued by NWS Newport/Morehead City, NC

Home | Current Version | Previous Version | Text Only | Print | Product List | Glossary Off
Versions: 1 2 3 4 5 6 7 8 9 10 11 12 13 14 15 16 17

179
FTUS42 KMHX 231741
TAFEWN
TAF
KEWN 231741Z 2318/2418 21011G19KT P6SM SCT040
     FM232300 20011G17KT P6SM SCT200
     FM241400 24012KT P6SM SCT140
     FM241600 24011G18KT P6SM BKN050=

USA.gov is the U.S. government's official web portal to all federal, state and local government web resources and services.